METAR Data
IDs: Format: Raw Decoded Include TAF

Data at: 0146 UTC 20 Jul 2019

METAR for:KLRJ (Le Mars Muni, IA, US)
Text:KLRJ 200135Z AUTO 20005KT 10SM CLR 32/28 A2968 RMK AO2
Temperature: 32.0°C ( 90°F)
Dewpoint: 28.0°C ( 82°F) [RH = 80%]
Pressure (altimeter):29.68 inches Hg (1005.2 mb)
Winds:from the SSW (200 degrees) at 6 MPH (5 knots; 2.6 m/s)
Visibility:10 or more sm (16+ km)
Ceiling:at least 12,000 feet AGL
Clouds:sky clear below 12,000 feet AGL
QC Flag:automated observation with no human augmentation